Franklinton, Kentucky
Current Conditions -  °F | °C
As of 5:53 AM on Saturday 01 Nov 2014 (Local Time) from KFFT Reporting Station
Overcast Overcast  
Wind Chill: 27°   Ceiling: 2900
Heat Index: 35°   Visibility: 10mi
Dew Point: 29°   Wind: 10mph
Humidity: 78%   Direction: 330°NNW
Pressure: 30.1"   Gusts: 24mph
Location:  38.369°N, 85.0622°W
Report Text: KFFT 010953Z AUTO 33009G21KT 10SM SCT021 OVC029 02/M02 A3010 RMK AO2 PK WND 33026/0916 SLP197 T00171017
Loading
Personal Weather Stations






























Interactive Weather Map
Tropical Storm Tracking
New forecast layout! Learn more

10-Day Weather Forecast

Advertisements
Track Severe Weather on mobile